Time;durP1;ratioP1;P1;durP2;ratioP2;P2;SDS_P1;SDS_P2;PMS_P1;PMS_P2;Temp;Humidity;BMP_temperature;BMP_pressure;BME280_temperature;BME280_humidity;BME280_pressure;Samples;Min_cycle;Max_cycle;Signal;HPM_P1;HPM_P2
2022/11/29 00:01:50;;;;;;;53.75;37.88;;;;;;;7.70;70.82;101230.63;4978873;28;19922;-82
2022/11/29 00:04:17;;;;;;;56.42;40.13;;;;;;;8.17;70.89;101307.69;4979173;28;20076;-81
2022/11/29 00:06:52;;;;;;;51.83;38.50;;;;;;;7.62;70.59;101213.56;4976223;28;20346;-82
2022/11/29 00:09:26;;;;;;;56.25;39.40;;;;;;;8.09;70.83;101291.50;4982013;28;20056;-80
2022/11/29 00:12:11;;;;;;;49.22;37.60;;;;;;;7.59;70.26;101205.84;4980636;28;20434;-82
2022/11/29 00:14:38;;;;;;;53.55;38.85;;;;;;;8.12;70.67;101292.13;4979127;28;20053;-82
2022/11/29 00:17:06;;;;;;;52.15;38.20;;;;;;;8.09;70.83;101283.56;4977859;28;20464;-83
2022/11/29 00:19:35;;;;;;;51.60;39.60;;;;;;;8.18;70.98;101304.09;4979253;28;20468;-80
2022/11/29 00:22:03;;;;;;;54.10;37.80;;;;;;;8.13;70.48;101290.31;4973988;28;20160;-79
2022/11/29 00:24:31;;;;;;;50.83;39.17;;;;;;;8.01;69.96;101262.94;4994202;28;20554;-78
2022/11/29 00:26:58;;;;;;;48.88;39.13;;;;;;;7.86;70.72;101229.56;4977027;28;20268;-79
2022/11/29 00:29:26;;;;;;;56.35;39.13;;;;;;;8.11;70.77;101279.88;4995184;28;20375;-80
2022/11/29 00:31:55;;;;;;;58.15;40.45;;;;;;;8.23;70.91;101298.47;4976082;28;20045;-80
2022/11/29 00:34:21;;;;;;;59.20;40.20;;;;;;;8.08;71.43;101276.56;4977188;28;20408;-79
2022/11/29 00:36:51;;;;;;;51.35;40.10;;;;;;;8.19;70.78;101289.91;4977979;28;20049;-81
2022/11/29 00:39:21;;;;;;;58.28;40.38;;;;;;;8.18;71.28;101290.00;4977440;28;20057;-81
2022/11/29 00:41:48;;;;;;;57.85;40.35;;;;;;;7.92;71.61;101259.09;4978280;28;20484;-80
2022/11/29 00:44:15;;;;;;;58.67;41.22;;;;;;;8.15;71.81;101296.34;4972495;28;20053;-80
2022/11/29 00:46:46;;;;;;;64.43;42.58;;;;;;;7.93;72.11;101260.78;4976685;28;20224;-81
2022/11/29 00:49:13;;;;;;;61.08;41.30;;;;;;;7.64;71.75;101206.38;4973676;28;20361;-80
2022/11/29 00:51:45;;;;;;;60.42;42.28;;;;;;;8.11;72.13;101289.59;4976353;28;20056;-80
2022/11/29 00:54:12;;;;;;;56.80;41.42;;;;;;;7.85;72.35;101241.94;4977824;28;20049;-81
2022/11/29 00:56:39;;;;;;;61.33;42.10;;;;;;;8.10;72.55;101294.00;4976711;28;20046;-81
2022/11/29 00:59:06;;;;;;;58.83;41.65;;;;;;;8.16;71.61;101295.41;4977949;28;20061;-79
2022/11/29 01:01:33;;;;;;;54.08;42.47;;;;;;;7.45;71.88;101162.72;4978329;28;20046;-80
2022/11/29 01:04:00;;;;;;;60.22;42.58;;;;;;;7.77;71.55;101217.84;4979292;28;20124;-81
2022/11/29 01:06:27;;;;;;;59.17;43.35;;;;;;;8.20;72.01;101294.25;4976849;28;20049;-80
2022/11/29 01:08:54;;;;;;;61.75;42.10;;;;;;;8.00;72.22;101255.09;4976607;28;20053;-80
2022/11/29 01:11:24;;;;;;;57.10;42.10;;;;;;;8.25;71.51;101292.16;4977816;28;20058;-80
2022/11/29 01:13:55;;;;;;;62.42;44.78;;;;;;;7.80;72.34;101224.72;4975359;28;20477;-80
2022/11/29 01:16:22;;;;;;;64.10;45.70;;;;;;;8.17;72.21;101278.59;4977596;28;20052;-81
2022/11/29 01:18:49;;;;;;;60.92;46.20;;;;;;;7.89;72.72;101237.31;4977900;28;20126;-80
2022/11/29 01:21:21;;;;;;;59.13;46.72;;;;;;;7.58;73.30;101197.09;4978488;28;20054;-80
2022/11/29 01:23:52;;;;;;;69.18;48.33;;;;;;;7.70;72.77;101203.34;4977280;28;20152;-80
2022/11/29 01:26:22;;;;;;;60.45;44.35;;;;;;;8.17;72.60;101283.88;4976342;28;20061;-80
2022/11/29 01:28:51;;;;;;;63.63;45.55;;;;;;;8.19;72.36;101287.28;4978133;28;20157;-80
2022/11/29 01:31:23;;;;;;;60.10;44.17;;;;;;;8.02;71.74;101253.19;4976811;28;20119;-80
2022/11/29 01:33:59;;;;;;;61.00;41.63;;;;;;;8.12;71.89;101272.75;4979615;28;20140;-79
2022/11/29 01:36:27;;;;;;;59.05;42.97;;;;;;;7.77;71.76;101207.28;4980955;28;20038;-80
2022/11/29 01:38:54;;;;;;;63.80;44.35;;;;;;;8.25;71.19;101281.56;4982758;28;20525;-79
2022/11/29 01:41:23;;;;;;;59.30;45.47;;;;;;;7.98;71.79;101241.97;4978618;28;20112;-80
2022/11/29 01:44:28;;;;;;;64.40;43.63;;;;;;;7.04;71.65;101097.66;4977725;28;21041;-81
2022/11/29 01:46:56;;;;;;;62.67;43.95;;;;;;;7.96;72.53;101245.66;4975272;28;20472;-80
2022/11/29 01:49:46;;;;;;;59.97;44.75;;;;;;;8.07;72.33;101259.84;4976625;28;20046;-81
2022/11/29 01:52:20;;;;;;;60.40;45.47;;;;;;;8.00;72.44;101245.34;4977852;28;20065;-81
2022/11/29 01:54:51;;;;;;;66.68;46.63;;;;;;;8.05;73.22;101266.19;4978451;28;20112;-82
2022/11/29 01:57:19;;;;;;;66.03;44.65;;;;;;;8.05;73.37;101276.78;4978353;28;20399;-81
2022/11/29 01:59:52;;;;;;;60.40;44.97;;;;;;;8.05;73.14;101256.47;4963555;28;20046;-82
2022/11/29 02:02:25;;;;;;;64.20;46.08;;;;;;;7.99;73.25;101241.03;4977261;28;20868;-82
2022/11/29 02:04:53;;;;;;;64.50;45.80;;;;;;;7.92;73.06;101232.66;4976246;28;20048;-83
2022/11/29 02:07:19;;;;;;;63.83;45.65;;;;;;;8.14;72.66;101269.06;4976116;28;20160;-83
2022/11/29 02:09:46;;;;;;;62.60;47.42;;;;;;;7.49;73.24;101174.75;4988122;28;20380;-82
2022/11/29 02:12:28;;;;;;;61.33;47.10;;;;;;;8.01;73.91;101270.00;4997173;28;20096;-81
2022/11/29 02:15:07;;;;;;;63.67;49.17;;;;;;;8.02;73.19;101261.97;4996653;28;20664;-81
2022/11/29 02:18:08;;;;;;;64.30;47.10;;;;;;;8.07;73.56;101278.38;4999581;28;20050;-82
2022/11/29 02:20:50;;;;;;;63.75;50.25;;;;;;;8.06;73.89;101266.09;4997067;28;20155;-81
2022/11/29 02:23:47;;;;;;;66.55;48.25;;;;;;;8.10;73.68;101272.03;5001216;28;20228;-79
2022/11/29 02:26:52;;;;;;;72.38;51.42;;;;;;;8.16;73.68;101270.78;4996721;28;20050;-81
2022/11/29 02:29:50;;;;;;;62.28;46.95;;;;;;;8.18;72.96;101269.72;4998230;28;20129;-81
2022/11/29 02:32:45;;;;;;;72.70;48.10;;;;;;;8.09;73.14;101283.56;4978231;28;20415;-82
2022/11/29 02:35:37;;;;;;;62.67;46.83;;;;;;;8.08;73.53;101268.63;4978997;28;20165;-83
2022/11/29 02:38:22;;;;;;;61.90;47.58;;;;;;;8.09;73.48;101265.06;4977587;28;20145;-83
2022/11/29 02:41:04;;;;;;;62.60;46.08;;;;;;;7.98;73.40;101251.69;4978391;28;20246;-80
2022/11/29 02:43:57;;;;;;;62.75;45.70;;;;;;;7.69;72.92;101209.56;4980452;28;20135;-82
2022/11/29 02:46:43;;;;;;;61.70;43.08;;;;;;;7.27;73.41;101132.22;4978523;28;20159;-83
2022/11/29 02:49:28;;;;;;;59.85;44.22;;;;;;;7.47;72.79;101163.44;4978069;28;20139;-82
2022/11/29 02:52:06;;;;;;;62.40;44.80;;;;;;;8.08;73.29;101260.69;4979611;28;20070;-82
2022/11/29 02:55:12;;;;;;;70.10;43.67;;;;;;;7.97;72.98;101242.94;4977762;28;20072;-81
2022/11/29 02:57:56;;;;;;;59.38;43.15;;;;;;;7.95;73.40;101246.63;4978870;28;20393;-83
2022/11/29 03:00:23;;;;;;;64.20;46.28;;;;;;;8.02;73.94;101263.78;4979720;28;20492;-83
2022/11/29 03:02:50;;;;;;;60.05;43.25;;;;;;;7.70;73.61;101213.91;4979601;28;20550;-81
2022/11/29 03:05:21;;;;;;;59.25;43.58;;;;;;;7.68;73.27;101192.88;4979592;28;20046;-83
2022/11/29 03:08:20;;;;;;;58.58;42.05;;;;;;;7.97;73.12;101250.84;4979932;28;20848;-82
2022/11/29 03:10:57;;;;;;;59.17;41.60;;;;;;;8.01;73.56;101267.34;4957063;28;20053;-83
2022/11/29 03:13:46;;;;;;;54.65;42.28;;;;;;;7.79;73.04;101215.94;4979009;28;20499;-81
2022/11/29 03:16:27;;;;;;;55.85;41.35;;;;;;;7.55;72.60;101175.28;4979715;28;20054;-82
2022/11/29 03:19:38;;;;;;;63.03;44.42;;;;;;;8.08;72.99;101263.34;4981678;28;20412;-82
2022/11/29 03:22:30;;;;;;;61.78;44.75;;;;;;;8.02;73.96;101264.59;4979163;28;20050;-81
2022/11/29 03:25:00;;;;;;;68.25;45.45;;;;;;;8.03;73.38;101263.66;4979571;28;20663;-82
2022/11/29 03:27:51;;;;;;;61.92;45.92;;;;;;;8.00;73.51;101269.16;4982086;28;20050;-82
2022/11/29 03:30:20;;;;;;;62.50;45.47;;;;;;;7.91;73.12;101243.31;4984228;28;20136;-83
2022/11/29 03:33:12;;;;;;;61.00;44.22;;;;;;;7.93;73.97;101271.34;4976271;28;20050;-82
2022/11/29 03:35:47;;;;;;;56.95;43.72;;;;;;;7.66;73.73;101220.34;4979847;28;20062;-83
2022/11/29 03:38:22;;;;;;;57.03;44.38;;;;;;;8.01;73.98;101262.06;4979798;28;20042;-82
2022/11/29 03:41:30;;;;;;;60.60;44.45;;;;;;;7.70;74.52;101235.91;4978579;28;20569;-83
2022/11/29 03:44:18;;;;;;;62.08;44.65;;;;;;;7.77;73.83;101219.63;4964460;28;20592;-83
2022/11/29 03:46:57;;;;;;;69.18;47.72;;;;;;;7.79;73.82;101241.50;4977821;28;20101;-82
2022/11/29 03:49:33;;;;;;;63.33;44.13;;;;;;;7.95;73.92;101263.31;4980336;28;20041;-81
2022/11/29 03:52:00;;;;;;;65.32;45.35;;;;;;;7.75;74.17;101227.66;4977623;28;20650;-83
2022/11/29 03:54:48;;;;;;;60.53;45.88;;;;;;;7.64;74.45;101220.44;4979017;28;20627;-83
2022/11/29 03:57:22;;;;;;;65.32;45.03;;;;;;;7.41;75.19;101182.34;4979054;28;20046;-82
2022/11/29 04:00:00;;;;;;;62.95;46.35;;;;;;;6.48;74.47;101001.97;4961088;28;20396;-83
2022/11/29 04:02:55;;;;;;;64.00;47.17;;;;;;;7.93;74.34;101249.38;4977106;28;20057;-83
2022/11/29 04:05:47;;;;;;;66.97;46.33;;;;;;;7.87;74.70;101239.22;4976652;28;20292;-84
2022/11/29 04:08:58;;;;;;;59.67;44.27;;;;;;;7.81;74.46;101229.88;4974247;28;20049;-85
2022/11/29 04:11:53;;;;;;;61.50;45.95;;;;;;;7.90;75.07;101250.41;4941970;28;20298;-81
2022/11/29 04:15:07;;;;;;;63.67;48.58;;;;;;;7.92;74.79;101248.53;4977125;28;20046;-82
2022/11/29 04:18:06;;;;;;;64.72;46.42;;;;;;;7.96;74.56;101249.19;4977614;28;20534;-84
2022/11/29 04:20:51;;;;;;;66.30;44.80;;;;;;;8.05;74.04;101248.53;4977871;28;20053;-84
2022/11/29 04:23:27;;;;;;;61.65;45.55;;;;;;;8.04;73.50;101251.28;4977475;28;20053;-82
2022/11/29 04:26:32;;;;;;;64.65;46.10;;;;;;;7.99;74.37;101248.13;4977898;28;20111;-84
2022/11/29 04:29:14;;;;;;;63.15;44.78;;;;;;;7.93;74.60;101255.50;4978480;28;20053;-82
2022/11/29 04:31:47;;;;;;;60.33;42.67;;;;;;;8.01;74.48;101252.34;4972583;28;20136;-83
2022/11/29 04:34:28;;;;;;;54.95;43.92;;;;;;;7.82;73.84;101228.94;4978846;28;20152;-81
2022/11/29 04:37:04;;;;;;;58.80;42.20;;;;;;;8.00;73.89;101244.50;4976127;28;20053;-82
2022/11/29 04:40:12;;;;;;;70.80;46.88;;;;;;;7.91;74.00;101246.84;4978485;28;20436;-84
2022/11/29 04:43:34;;;;;;;56.05;44.85;;;;;;;7.83;74.24;101246.50;4978396;28;20053;-83
2022/11/29 04:46:09;;;;;;;56.88;42.90;;;;;;;7.87;74.09;101250.63;4977416;28;20106;-81
2022/11/29 04:49:02;;;;;;;57.65;45.22;;;;;;;7.79;74.08;101237.09;4978140;28;20144;-83
2022/11/29 04:51:45;;;;;;;;;;;;;;;7.93;73.75;101249.38;4957078;28;20057;-83
2022/11/29 04:54:30;;;;;;;51.78;37.22;;;;;;;7.95;73.37;101262.50;4957991;28;20019;-82
2022/11/29 04:57:12;;;;;;;49.10;36.03;;;;;;;7.60;72.46;101191.72;4957031;28;20058;-84
2022/11/29 05:00:08;;;;;;;50.13;32.95;;;;;;;7.91;72.16;101233.63;4977482;28;20637;-84
2022/11/29 05:02:59;;;;;;;51.08;34.08;;;;;;;7.95;72.66;101262.50;4980415;28;20572;-84
2022/11/29 05:05:38;;;;;;;42.60;32.13;;;;;;;7.54;73.70;101194.75;4977280;28;20108;-83
2022/11/29 05:08:38;;;;;;;41.38;32.80;;;;;;;7.88;73.47;101268.19;4975871;28;20050;-84
2022/11/29 05:11:26;;;;;;;46.92;34.88;;;;;;;8.00;74.07;101270.97;4974778;28;20046;-82
2022/11/29 05:14:24;;;;;;;48.03;33.20;;;;;;;7.97;74.57;101266.72;4975387;28;20048;-82
2022/11/29 05:17:22;;;;;;;45.53;32.97;;;;;;;8.01;74.79;101264.69;4974307;28;20057;-83
2022/11/29 05:20:31;;;;;;;46.65;34.22;;;;;;;7.85;74.88;101252.53;4976653;28;20128;-84
2022/11/29 05:23:21;;;;;;;42.15;32.97;;;;;;;7.87;76.05;101266.50;4977228;28;20053;-84
2022/11/29 05:26:00;;;;;;;50.38;32.60;;;;;;;7.47;74.74;101195.13;4975118;28;20046;-83
2022/11/29 05:28:42;;;;;;;47.40;34.08;;;;;;;7.85;75.33;101268.38;4976614;28;20050;-83
2022/11/29 05:31:43;;;;;;;42.97;32.03;;;;;;;7.80;75.94;101277.59;4977559;28;20135;-83
2022/11/29 05:34:31;;;;;;;44.28;32.78;;;;;;;7.39;75.10;101200.09;4959811;28;20066;-83
2022/11/29 05:37:20;;;;;;;45.80;33.47;;;;;;;7.78;76.08;101277.66;4958017;28;20056;-83
2022/11/29 05:40:23;;;;;;;47.08;32.28;;;;;;;7.77;76.19;101277.75;4957443;28;20199;-84
2022/11/29 05:43:15;;;;;;;44.85;34.20;;;;;;;7.80;75.99;101275.78;4956916;28;20137;-83
2022/11/29 05:46:00;;;;;;;49.35;34.58;;;;;;;7.75;75.30;101250.63;4958462;28;20088;-83
2022/11/29 05:48:36;;;;;;;46.10;34.10;;;;;;;7.77;75.89;101280.41;4955757;28;20055;-82
2022/11/29 05:51:36;;;;;;;48.58;34.42;;;;;;;7.43;76.51;101233.28;4970442;28;20459;-83
2022/11/29 05:54:21;;;;;;;49.80;34.58;;;;;;;7.73;76.50;101273.66;4975375;28;20053;-84
2022/11/29 05:57:25;;;;;;;48.50;34.97;;;;;;;6.41;76.36;101058.69;4979855;28;20054;-84
2022/11/29 05:59:55;;;;;;;48.38;34.67;;;;;;;7.73;75.92;101279.78;4966652;28;20069;-85
2022/11/29 06:02:56;;;;;;;48.45;36.25;;;;;;;6.80;76.82;101146.75;4981869;28;20077;-84
2022/11/29 06:05:32;;;;;;;47.13;35.88;;;;;;;6.91;77.75;101165.38;4981107;28;20131;-85
2022/11/29 06:08:28;;;;;;;51.95;37.40;;;;;;;7.58;78.00;101270.22;4980932;28;20483;-85
2022/11/29 06:11:05;;;;;;;56.17;40.08;;;;;;;6.93;78.21;101175.84;4978908;28;20054;-85
2022/11/29 06:14:04;;;;;;;54.85;40.40;;;;;;;7.45;79.00;101271.03;5000466;28;20428;-85
2022/11/29 06:16:40;;;;;;;59.88;41.30;;;;;;;7.47;78.75;101269.09;4974519;28;20046;-85
2022/11/29 06:19:31;;;;;;;53.58;40.08;;;;;;;7.52;79.09;101265.34;4981321;28;20042;-83
2022/11/29 06:22:19;;;;;;;59.33;42.40;;;;;;;7.43;79.69;101283.50;4978730;28;20282;-85
2022/11/29 06:25:38;;;;;;;57.47;42.50;;;;;;;7.35;79.92;101264.63;4979055;28;20495;-84
2022/11/29 06:28:14;;;;;;;59.97;41.63;;;;;;;7.10;78.81;101204.63;4976232;28;20049;-85
2022/11/29 06:31:11;;;;;;;62.50;45.38;;;;;;;7.44;79.77;101274.59;4979792;28;20089;-84
2022/11/29 06:33:59;;;;;;;63.47;45.20;;;;;;;7.39;80.34;101279.34;4960406;28;20294;-84
2022/11/29 06:36:47;;;;;;;59.72;45.30;;;;;;;7.21;79.73;101246.22;4964189;28;20053;-84
2022/11/29 06:39:16;;;;;;;69.68;46.03;;;;;;;7.43;80.73;101282.66;4984097;28;20842;-84
2022/11/29 06:41:43;;;;;;;66.68;46.67;;;;;;;7.45;80.79;101276.31;4981002;28;20343;-85
2022/11/29 06:44:11;;;;;;;63.13;46.67;;;;;;;7.18;80.20;101235.81;4976827;28;20057;-83
2022/11/29 06:47:08;;;;;;;64.45;46.75;;;;;;;7.52;80.57;101281.19;4982546;28;20045;-85
2022/11/29 06:49:45;;;;;;;66.05;47.90;;;;;;;7.51;80.55;101284.78;4978284;28;20346;-84
2022/11/29 06:52:40;;;;;;;70.72;49.13;;;;;;;7.16;80.93;101227.16;4979991;28;20054;-84
2022/11/29 06:55:23;;;;;;;63.13;46.00;;;;;;;7.16;80.75;101224.50;4982049;28;20321;-85
2022/11/29 06:58:11;;;;;;;67.20;47.72;;;;;;;7.55;80.31;101307.41;4979551;28;20085;-84
2022/11/29 07:00:55;;;;;;;58.55;46.13;;;;;;;7.53;80.10;101293.47;4984278;28;20163;-85
2022/11/29 07:03:57;;;;;;;64.18;45.58;;;;;;;7.56;79.65;101298.53;4981248;28;20053;-83
2022/11/29 07:06:27;;;;;;;61.78;45.67;;;;;;;7.36;80.57;101266.34;4979747;28;20466;-82
2022/11/29 07:09:00;;;;;;;64.63;46.15;;;;;;;7.51;80.25;101296.19;4981755;28;20200;-84
2022/11/29 07:11:28;;;;;;;70.40;46.92;;;;;;;6.89;79.80;101191.03;4980316;28;20053;-83
2022/11/29 07:13:55;;;;;;;63.05;47.78;;;;;;;6.82;79.92;101179.16;4981068;28;20287;-85
2022/11/29 07:17:02;;;;;;;64.10;48.05;;;;;;;7.39;80.04;101283.78;4996995;28;20045;-83
2022/11/29 07:19:52;;;;;;;59.95;44.53;;;;;;;7.46;79.98;101299.13;4980477;28;20141;-84
2022/11/29 07:22:56;;;;;;;61.60;46.87;;;;;;;7.42;81.41;101302.91;4979094;28;20219;-82
2022/11/29 07:25:23;;;;;;;60.72;44.90;;;;;;;6.82;80.27;101181.78;4978403;28;20403;-83
2022/11/29 07:28:00;;;;;;;64.80;45.88;;;;;;;7.49;79.86;101300.72;4981317;28;20046;-83
2022/11/29 07:30:55;;;;;;;61.78;44.85;;;;;;;7.29;80.38;101270.31;4979489;28;20050;-84
2022/11/29 07:33:55;;;;;;;61.65;44.67;;;;;;;7.45;80.73;101297.44;4953966;28;20260;-82
2022/11/29 07:36:33;;;;;;;59.15;44.72;;;;;;;7.41;80.03;101288.03;4976608;28;20046;-84
2022/11/29 07:39:42;;;;;;;59.05;46.40;;;;;;;7.42;80.62;101294.97;4976298;28;20554;-83
2022/11/29 07:42:28;;;;;;;64.07;44.10;;;;;;;7.07;80.77;101234.72;4975727;28;20061;-84
2022/11/29 07:45:05;;;;;;;61.03;44.92;;;;;;;7.36;80.25;101274.25;4977421;28;20267;-84
2022/11/29 07:47:35;;;;;;;68.13;46.40;;;;;;;6.91;81.54;101226.09;4977362;28;20545;-84
2022/11/29 07:50:03;;;;;;;65.60;47.20;;;;;;;7.27;81.49;101285.41;4979388;28;20057;-85
2022/11/29 07:52:33;;;;;;;59.88;46.42;;;;;;;6.91;81.46;101223.44;4977828;28;20136;-83
2022/11/29 07:55:03;;;;;;;65.45;45.10;;;;;;;6.49;80.62;101153.97;4979296;28;20145;-83
2022/11/29 07:57:32;;;;;;;64.68;45.47;;;;;;;7.28;81.34;101271.25;4979123;28;20046;-85
2022/11/29 07:59:59;;;;;;;68.45;46.08;;;;;;;7.36;81.42;101297.19;4976929;28;20042;-85
2022/11/29 08:02:30;;;;;;;70.93;48.00;;;;;;;6.74;81.73;101199.91;4977876;28;20049;-86
2022/11/29 08:04:57;;;;;;;62.72;46.80;;;;;;;7.43;82.09;101306.44;4983017;28;20102;-85
2022/11/29 08:07:24;;;;;;;65.38;46.97;;;;;;;7.39;82.01;101303.13;4998559;28;20045;-86
2022/11/29 08:09:52;;;;;;;64.57;49.05;;;;;;;7.40;83.09;101310.13;4979376;28;20049;-84
2022/11/29 08:12:19;;;;;;;67.75;50.10;;;;;;;7.47;82.34;101308.75;4980404;28;20052;-84
2022/11/29 08:14:45;;;;;;;67.38;51.17;;;;;;;6.76;82.55;101185.69;4979500;28;20388;-84
2022/11/29 08:17:13;;;;;;;77.65;52.00;;;;;;;7.25;82.65;101282.03;4981639;28;20051;-83
2022/11/29 08:19:40;;;;;;;75.88;52.45;;;;;;;7.43;82.41;101309.91;4981446;28;20049;-83
2022/11/29 08:22:06;;;;;;;72.93;51.95;;;;;;;7.44;82.30;101311.59;4988439;28;20373;-83
2022/11/29 08:24:33;;;;;;;70.50;52.72;;;;;;;7.42;82.23;101302.91;4978393;28;20627;-83
2022/11/29 08:27:00;;;;;;;68.78;50.22;;;;;;;7.23;82.78;101282.13;4978854;28;20046;-84
2022/11/29 08:29:29;;;;;;;74.32;52.70;;;;;;;7.49;82.49;101325.34;4979549;28;20060;-83
2022/11/29 08:31:56;;;;;;;76.15;54.05;;;;;;;7.52;82.15;101312.88;4980105;28;20260;-85
2022/11/29 08:34:23;;;;;;;73.30;51.85;;;;;;;7.14;81.68;101244.91;4979128;28;20162;-84
2022/11/29 08:36:53;;;;;;;71.95;52.03;;;;;;;7.51;83.11;101322.63;4974522;28;20052;-83
2022/11/29 08:39:21;;;;;;;74.50;51.03;;;;;;;7.51;82.78;101316.50;4978530;28;20046;-81
2022/11/29 08:41:53;;;;;;;74.03;53.83;;;;;;;7.29;83.17;101283.53;4983194;28;20049;-84
2022/11/29 08:44:21;;;;;;;67.70;51.22;;;;;;;7.53;83.23;101325.16;4976155;28;20137;-84
2022/11/29 08:50:00;;;;;;;73.10;49.40;;;;;;;7.58;82.59;101328.34;4981568;28;20136;-81
2022/11/29 08:55:08;;;;;;;71.00;51.35;;;;;;;7.59;82.57;101330.03;4981296;28;20135;-82
2022/11/29 08:57:35;;;;;;;67.35;50.45;;;;;;;7.45;83.08;101323.88;4978090;28;20407;-82
2022/11/29 09:00:10;;;;;;;75.22;51.63;;;;;;;7.53;83.08;101335.75;4985029;28;20058;-82
2022/11/29 09:02:37;;;;;;;73.07;51.67;;;;;;;7.29;82.64;101280.88;4981065;28;20050;-85
2022/11/29 09:05:06;;;;;;;72.20;51.78;;;;;;;6.82;81.75;101211.69;4979178;28;20046;-81
2022/11/29 09:07:32;;;;;;;77.15;51.25;;;;;;;7.45;82.89;101318.59;4978385;28;20050;-82
2022/11/29 09:10:04;;;;;;;75.07;52.08;;;;;;;7.55;83.10;101333.81;4980753;28;20053;-82
2022/11/29 09:12:31;;;;;;;78.30;52.40;;;;;;;7.15;83.05;101271.19;4989143;28;20046;-81
2022/11/29 09:14:59;;;;;;;74.53;51.22;;;;;;;7.24;83.59;101288.25;4973393;28;20422;-81
2022/11/29 09:17:29;;;;;;;74.00;53.58;;;;;;;7.47;83.75;101331.69;4978371;28;20064;-81
2022/11/29 09:19:56;;;;;;;75.22;53.72;;;;;;;7.38;83.51;101325.22;4979222;28;20392;-81
2022/11/29 09:22:26;;;;;;;72.22;52.88;;;;;;;7.39;83.28;101318.13;4978089;28;20073;-81
2022/11/29 09:24:53;;;;;;;77.10;52.75;;;;;;;7.52;83.68;101340.16;4980630;28;20054;-81
2022/11/29 09:27:23;;;;;;;72.82;52.50;;;;;;;7.49;82.80;101351.78;4981119;28;20453;-85
2022/11/29 09:29:50;;;;;;;66.82;51.25;;;;;;;7.59;83.42;101343.25;4984770;28;20061;-82
2022/11/29 09:32:20;;;;;;;72.20;51.92;;;;;;;7.15;83.07;101284.41;4990854;28;20384;-81
2022/11/29 09:34:50;;;;;;;72.47;51.17;;;;;;;7.17;82.93;101276.41;4983459;28;20046;-82
2022/11/29 09:37:16;;;;;;;73.80;50.85;;;;;;;7.33;82.70;101298.25;4984428;28;20057;-82
2022/11/29 09:39:44;;;;;;;74.63;52.63;;;;;;;7.32;82.74;101280.69;4986716;28;20785;-81
2022/11/29 09:42:32;;;;;;;70.78;50.60;;;;;;;7.66;82.89;101349.84;4982153;28;20041;-83
2022/11/29 09:45:08;;;;;;;69.15;50.38;;;;;;;7.78;81.31;101346.41;4985062;28;20068;-80
2022/11/29 09:48:08;;;;;;;73.95;52.53;;;;;;;7.65;82.16;101345.50;4992696;28;20062;-81
2022/11/29 09:50:42;;;;;;;71.25;51.75;;;;;;;6.42;82.37;101157.94;4987876;28;20058;-80
2022/11/29 09:53:19;;;;;;;71.55;50.45;;;;;;;7.64;83.18;101338.50;4986931;28;20216;-81
2022/11/29 09:56:06;;;;;;;70.07;49.80;;;;;;;7.69;81.60;101349.63;4990284;28;20056;-82
2022/11/29 09:58:52;;;;;;;67.70;47.65;;;;;;;7.27;82.88;101294.19;4988172;28;20306;-81
2022/11/29 10:01:36;;;;;;;69.82;52.05;;;;;;;7.24;82.67;101273.25;4988943;28;20283;-80
2022/11/29 10:04:11;;;;;;;68.72;51.42;;;;;;;7.58;83.51;101338.94;4982906;28;20056;-81
2022/11/29 10:06:44;;;;;;;71.13;51.53;;;;;;;7.60;82.92;101337.03;4979458;28;20044;-81
2022/11/29 10:09:21;;;;;;;66.95;48.80;;;;;;;7.22;83.45;101277.78;4978003;28;20517;-81
2022/11/29 10:11:52;;;;;;;63.63;47.38;;;;;;;7.63;83.05;101335.03;4975161;28;20525;-81
2022/11/29 10:14:23;;;;;;;65.82;48.17;;;;;;;7.41;83.41;101306.50;4983343;28;20445;-80
2022/11/29 10:16:56;;;;;;;60.85;44.72;;;;;;;7.69;82.62;101345.22;4981689;28;20046;-82
2022/11/29 10:19:28;;;;;;;66.28;46.03;;;;;;;7.57;83.06;101327.50;4981233;28;20050;-82
2022/11/29 10:22:12;;;;;;;63.50;45.90;;;;;;;7.71;83.05;101342.47;4983209;28;20705;-81
2022/11/29 10:24:40;;;;;;;66.80;46.67;;;;;;;7.65;83.12;101345.50;4993470;28;20088;-82
2022/11/29 10:27:17;;;;;;;63.40;46.70;;;;;;;7.54;82.49;101308.34;4983202;28;20451;-82
2022/11/29 10:29:47;;;;;;;61.72;46.15;;;;;;;7.58;83.07;101323.06;4983973;28;20046;-81
2022/11/29 10:32:14;;;;;;;61.17;43.05;;;;;;;7.54;82.55;101300.44;4982530;28;20873;-82
2022/11/29 10:34:42;;;;;;;57.63;44.40;;;;;;;7.73;82.62;101343.22;4986484;28;20137;-81
2022/11/29 10:37:15;;;;;;;65.63;44.55;;;;;;;7.49;82.95;101309.50;4982709;28;20042;-81
2022/11/29 10:39:57;;;;;;;59.88;44.05;;;;;;;7.61;83.83;101330.78;4980140;28;20049;-81
2022/11/29 10:45:19;;;;;;;60.17;44.58;;;;;;;7.46;84.01;101300.94;4982539;28;20292;-81
2022/11/29 10:47:48;;;;;;;55.97;43.50;;;;;;;7.65;84.10;101327.03;4981173;28;20474;-81
2022/11/29 10:50:21;;;;;;;60.97;43.88;;;;;;;6.89;84.77;101196.28;4984039;28;20214;-81
2022/11/29 10:52:48;;;;;;;59.38;44.78;;;;;;;7.46;83.88;101280.63;4985073;28;20416;-81
2022/11/29 10:55:16;;;;;;;60.38;43.97;;;;;;;7.68;84.35;101313.59;4982705;28;20143;-81
2022/11/29 10:58:12;;;;;;;59.42;43.42;;;;;;;7.76;84.17;101327.16;4984261;28;20450;-82
2022/11/29 11:01:06;;;;;;;58.28;41.90;;;;;;;7.70;84.45;101319.63;4955531;28;20337;-82
2022/11/29 11:03:48;;;;;;;54.20;40.58;;;;;;;7.82;84.36;101318.81;4963509;28;20050;-83
2022/11/29 11:06:23;;;;;;;50.10;37.70;;;;;;;6.27;83.43;101075.38;4980521;28;20062;-83
2022/11/29 11:09:11;;;;;;;52.50;39.38;;;;;;;7.02;83.55;101189.28;4992238;28;20116;-82
2022/11/29 11:11:38;;;;;;;55.95;38.67;;;;;;;6.81;83.80;101153.72;4997915;28;20046;-80
2022/11/29 11:14:20;;;;;;;48.00;37.20;;;;;;;7.80;83.69;101307.50;4999809;28;20042;-80
2022/11/29 11:16:48;;;;;;;55.35;40.67;;;;;;;7.38;83.49;101248.59;5000853;28;20123;-78
2022/11/29 11:19:33;;;;;;;50.33;38.25;;;;;;;7.85;83.51;101320.41;5000936;28;20054;-79
2022/11/29 11:22:02;;;;;;;52.60;40.33;;;;;;;6.62;84.06;101117.13;5000577;28;20052;-79
2022/11/29 11:24:39;;;;;;;50.78;39.22;;;;;;;7.72;84.16;101299.25;4999275;28;20137;-79
2022/11/29 11:27:06;;;;;;;57.28;41.38;;;;;;;7.66;84.05;101278.50;5000832;28;20152;-79
2022/11/29 11:29:40;;;;;;;55.42;41.50;;;;;;;7.30;84.31;101227.09;4988344;28;20049;-82
2022/11/29 11:32:16;;;;;;;;;;;;;;;7.85;84.50;101313.31;4981044;28;20052;-82
2022/11/29 11:34:52;;;;;;;54.28;39.00;;;;;;;7.25;83.83;101216.00;4979047;28;19921;-82
2022/11/29 11:37:27;;;;;;;55.10;40.70;;;;;;;6.60;84.29;101124.28;4982249;28;20562;-83
2022/11/29 11:40:16;;;;;;;57.15;40.00;;;;;;;7.51;84.88;101269.78;4982957;28;20080;-81
2022/11/29 11:42:44;;;;;;;56.00;40.20;;;;;;;7.77;84.78;101307.72;4981418;28;20048;-80
2022/11/29 11:45:11;;;;;;;53.80;40.38;;;;;;;7.52;84.44;101260.88;4982525;28;20148;-80
2022/11/29 11:47:51;;;;;;;53.65;40.05;;;;;;;7.56;85.00;101274.75;4983456;28;20086;-79
2022/11/29 11:50:33;;;;;;;47.83;37.75;;;;;;;7.40;85.38;101241.44;4981232;28;20056;-82
2022/11/29 11:53:16;;;;;;;47.03;36.60;;;;;;;7.88;83.67;101310.47;4981302;28;20067;-82
2022/11/29 11:56:09;;;;;;;47.45;37.35;;;;;;;7.84;84.25;101313.41;4967466;28;20446;-82
2022/11/29 11:58:42;;;;;;;49.47;37.80;;;;;;;7.89;84.38;101316.63;4969434;28;20042;-81
2022/11/29 12:01:23;;;;;;;49.25;37.55;;;;;;;7.87;84.74;101319.38;4979885;28;20208;-82
2022/11/29 12:04:09;;;;;;;50.90;38.78;;;;;;;7.64;84.06;101269.81;4982122;28;20061;-82
2022/11/29 12:06:52;;;;;;;52.85;37.92;;;;;;;7.73;84.88;101300.91;4981731;28;20058;-82
2022/11/29 12:09:29;;;;;;;48.65;36.70;;;;;;;7.90;84.83;101329.72;4980596;28;20053;-82
2022/11/29 12:12:19;;;;;;;49.75;36.47;;;;;;;7.93;84.08;101324.22;4981330;28;20147;-82
2022/11/29 12:14:45;;;;;;;49.03;36.70;;;;;;;7.94;83.79;101327.75;4980564;28;20053;-81
2022/11/29 12:17:37;;;;;;;51.10;35.75;;;;;;;7.88;84.00;101320.22;4979716;28;20535;-82
2022/11/29 12:20:25;;;;;;;47.35;33.95;;;;;;;7.96;84.00;101320.56;4981300;28;20439;-81